sensor_id;sensor_type;location;lat;lon;timestamp;P1;durP1;ratioP1;P2;durP2;ratioP2
842;SDS011;407;48.884;9.126;2022-10-22T00:00:21;3.65;;;0.50;;
842;SDS011;407;48.884;9.126;2022-10-22T00:02:48;3.80;;;0.63;;
842;SDS011;407;48.884;9.126;2022-10-22T00:05:13;4.03;;;0.60;;
842;SDS011;407;48.884;9.126;2022-10-22T00:07:39;5.00;;;0.70;;
842;SDS011;407;48.884;9.126;2022-10-22T00:10:05;4.80;;;0.70;;
842;SDS011;407;48.884;9.126;2022-10-22T00:12:31;4.80;;;0.80;;
842;SDS011;407;48.884;9.126;2022-10-22T00:14:57;4.40;;;0.60;;
842;SDS011;407;48.884;9.126;2022-10-22T00:17:23;4.40;;;0.70;;
842;SDS011;407;48.884;9.126;2022-10-22T00:19:48;4.15;;;0.70;;
842;SDS011;407;48.884;9.126;2022-10-22T00:22:14;4.80;;;0.80;;
842;SDS011;407;48.884;9.126;2022-10-22T00:24:39;3.80;;;0.60;;
842;SDS011;407;48.884;9.126;2022-10-22T00:27:06;4.68;;;0.60;;
842;SDS011;407;48.884;9.126;2022-10-22T00:29:33;5.18;;;0.60;;
842;SDS011;407;48.884;9.126;2022-10-22T00:31:59;3.92;;;0.70;;
842;SDS011;407;48.884;9.126;2022-10-22T00:34:24;5.10;;;0.60;;
842;SDS011;407;48.884;9.126;2022-10-22T00:36:50;3.60;;;0.50;;
842;SDS011;407;48.884;9.126;2022-10-22T00:39:17;4.25;;;0.50;;
842;SDS011;407;48.884;9.126;2022-10-22T00:41:45;4.25;;;0.50;;
842;SDS011;407;48.884;9.126;2022-10-22T00:47:15;3.70;;;0.60;;
842;SDS011;407;48.884;9.126;2022-10-22T00:49:42;4.00;;;0.60;;
842;SDS011;407;48.884;9.126;2022-10-22T00:52:10;3.88;;;0.57;;
842;SDS011;407;48.884;9.126;2022-10-22T00:54:35;3.60;;;0.50;;
842;SDS011;407;48.884;9.126;2022-10-22T00:57:02;6.70;;;0.60;;
842;SDS011;407;48.884;9.126;2022-10-22T00:59:28;3.70;;;0.60;;
842;SDS011;407;48.884;9.126;2022-10-22T01:01:54;3.80;;;0.50;;
842;SDS011;407;48.884;9.126;2022-10-22T01:04:19;3.90;;;1.00;;
842;SDS011;407;48.884;9.126;2022-10-22T01:06:45;3.60;;;0.40;;
842;SDS011;407;48.884;9.126;2022-10-22T01:15:07;3.70;;;0.50;;
842;SDS011;407;48.884;9.126;2022-10-22T01:25:48;3.80;;;0.50;;
842;SDS011;407;48.884;9.126;2022-10-22T01:31:13;3.95;;;0.55;;
842;SDS011;407;48.884;9.126;2022-10-22T01:33:42;5.20;;;0.80;;
842;SDS011;407;48.884;9.126;2022-10-22T01:36:11;3.80;;;0.50;;
842;SDS011;407;48.884;9.126;2022-10-22T01:38:38;4.50;;;0.70;;
842;SDS011;407;48.884;9.126;2022-10-22T01:41:05;3.90;;;0.60;;
842;SDS011;407;48.884;9.126;2022-10-22T01:43:31;3.80;;;0.50;;
842;SDS011;407;48.884;9.126;2022-10-22T01:45:58;4.88;;;0.60;;
842;SDS011;407;48.884;9.126;2022-10-22T01:54:18;4.60;;;0.80;;
842;SDS011;407;48.884;9.126;2022-10-22T02:02:32;3.78;;;0.50;;
842;SDS011;407;48.884;9.126;2022-10-22T02:07:51;4.18;;;0.60;;
842;SDS011;407;48.884;9.126;2022-10-22T02:10:21;4.38;;;0.50;;
842;SDS011;407;48.884;9.126;2022-10-22T02:12:49;4.15;;;0.40;;
842;SDS011;407;48.884;9.126;2022-10-22T02:15:18;4.00;;;0.60;;
842;SDS011;407;48.884;9.126;2022-10-22T02:17:46;3.97;;;0.50;;
842;SDS011;407;48.884;9.126;2022-10-22T02:20:17;4.10;;;0.60;;
842;SDS011;407;48.884;9.126;2022-10-22T02:22:46;3.90;;;0.50;;
842;SDS011;407;48.884;9.126;2022-10-22T02:25:11;5.10;;;0.60;;
842;SDS011;407;48.884;9.126;2022-10-22T02:27:50;3.90;;;0.50;;
842;SDS011;407;48.884;9.126;2022-10-22T02:30:28;4.20;;;0.50;;
842;SDS011;407;48.884;9.126;2022-10-22T02:32:59;3.85;;;0.60;;
842;SDS011;407;48.884;9.126;2022-10-22T02:35:31;4.78;;;0.80;;
842;SDS011;407;48.884;9.126;2022-10-22T02:37:58;3.90;;;0.70;;
842;SDS011;407;48.884;9.126;2022-10-22T02:40:24;5.22;;;0.70;;
842;SDS011;407;48.884;9.126;2022-10-22T02:42:51;4.00;;;0.60;;
842;SDS011;407;48.884;9.126;2022-10-22T02:45:18;4.90;;;0.60;;
842;SDS011;407;48.884;9.126;2022-10-22T02:47:44;3.83;;;0.57;;
842;SDS011;407;48.884;9.126;2022-10-22T02:50:10;5.20;;;0.60;;
842;SDS011;407;48.884;9.126;2022-10-22T02:52:36;4.40;;;0.67;;
842;SDS011;407;48.884;9.126;2022-10-22T02:55:02;3.63;;;0.50;;
842;SDS011;407;48.884;9.126;2022-10-22T02:57:28;4.70;;;0.70;;
842;SDS011;407;48.884;9.126;2022-10-22T02:59:54;3.93;;;0.70;;
842;SDS011;407;48.884;9.126;2022-10-22T03:02:19;6.80;;;0.70;;
842;SDS011;407;48.884;9.126;2022-10-22T03:04:45;4.30;;;0.60;;
842;SDS011;407;48.884;9.126;2022-10-22T03:07:10;4.17;;;0.60;;
842;SDS011;407;48.884;9.126;2022-10-22T03:09:36;3.78;;;0.50;;
842;SDS011;407;48.884;9.126;2022-10-22T03:12:02;4.10;;;0.80;;
842;SDS011;407;48.884;9.126;2022-10-22T03:14:27;4.40;;;0.60;;
842;SDS011;407;48.884;9.126;2022-10-22T03:16:53;6.00;;;0.70;;
842;SDS011;407;48.884;9.126;2022-10-22T03:19:19;4.00;;;0.63;;
842;SDS011;407;48.884;9.126;2022-10-22T03:21:47;3.97;;;0.70;;
842;SDS011;407;48.884;9.126;2022-10-22T03:27:12;4.00;;;0.60;;
842;SDS011;407;48.884;9.126;2022-10-22T03:29:40;6.70;;;0.63;;
842;SDS011;407;48.884;9.126;2022-10-22T03:32:07;3.70;;;0.50;;
842;SDS011;407;48.884;9.126;2022-10-22T03:34:32;3.90;;;0.60;;
842;SDS011;407;48.884;9.126;2022-10-22T03:36:58;4.10;;;0.80;;
842;SDS011;407;48.884;9.126;2022-10-22T03:39:25;4.38;;;0.88;;
842;SDS011;407;48.884;9.126;2022-10-22T03:41:54;3.95;;;0.60;;
842;SDS011;407;48.884;9.126;2022-10-22T03:44:20;4.00;;;0.60;;
842;SDS011;407;48.884;9.126;2022-10-22T03:46:46;5.00;;;0.60;;
842;SDS011;407;48.884;9.126;2022-10-22T03:49:12;5.00;;;0.70;;
842;SDS011;407;48.884;9.126;2022-10-22T03:51:38;4.75;;;0.60;;
842;SDS011;407;48.884;9.126;2022-10-22T03:54:04;3.90;;;0.60;;
842;SDS011;407;48.884;9.126;2022-10-22T03:56:30;4.53;;;0.80;;
842;SDS011;407;48.884;9.126;2022-10-22T03:58:56;5.97;;;0.80;;
842;SDS011;407;48.884;9.126;2022-10-22T04:01:22;5.60;;;0.80;;
842;SDS011;407;48.884;9.126;2022-10-22T04:03:49;3.90;;;0.65;;
842;SDS011;407;48.884;9.126;2022-10-22T04:06:14;4.60;;;0.77;;
842;SDS011;407;48.884;9.126;2022-10-22T04:08:41;5.40;;;0.70;;
842;SDS011;407;48.884;9.126;2022-10-22T04:11:08;4.10;;;0.70;;
842;SDS011;407;48.884;9.126;2022-10-22T04:13:35;4.60;;;0.85;;
842;SDS011;407;48.884;9.126;2022-10-22T04:16:08;4.23;;;0.97;;
842;SDS011;407;48.884;9.126;2022-10-22T04:18:34;4.18;;;0.80;;
842;SDS011;407;48.884;9.126;2022-10-22T04:21:00;4.20;;;0.70;;
842;SDS011;407;48.884;9.126;2022-10-22T04:23:26;4.60;;;0.60;;
842;SDS011;407;48.884;9.126;2022-10-22T04:25:56;4.45;;;0.70;;
842;SDS011;407;48.884;9.126;2022-10-22T04:28:23;4.00;;;0.63;;
842;SDS011;407;48.884;9.126;2022-10-22T04:30:48;6.63;;;0.90;;
842;SDS011;407;48.884;9.126;2022-10-22T04:33:14;4.00;;;0.50;;
842;SDS011;407;48.884;9.126;2022-10-22T04:35:39;4.00;;;0.60;;
842;SDS011;407;48.884;9.126;2022-10-22T04:38:05;4.67;;;0.70;;
842;SDS011;407;48.884;9.126;2022-10-22T04:40:31;5.03;;;0.70;;
842;SDS011;407;48.884;9.126;2022-10-22T04:42:56;3.70;;;0.60;;
842;SDS011;407;48.884;9.126;2022-10-22T04:45:22;4.40;;;0.63;;
842;SDS011;407;48.884;9.126;2022-10-22T04:47:47;4.50;;;0.80;;
842;SDS011;407;48.884;9.126;2022-10-22T04:50:13;5.23;;;0.60;;
842;SDS011;407;48.884;9.126;2022-10-22T04:52:39;3.90;;;0.70;;
842;SDS011;407;48.884;9.126;2022-10-22T04:55:04;4.60;;;0.90;;
842;SDS011;407;48.884;9.126;2022-10-22T04:57:31;3.80;;;0.60;;
842;SDS011;407;48.884;9.126;2022-10-22T04:59:56;4.53;;;0.60;;
842;SDS011;407;48.884;9.126;2022-10-22T05:02:22;3.80;;;0.60;;
842;SDS011;407;48.884;9.126;2022-10-22T05:04:48;5.90;;;0.70;;
842;SDS011;407;48.884;9.126;2022-10-22T05:07:13;4.28;;;0.60;;
842;SDS011;407;48.884;9.126;2022-10-22T05:09:39;3.80;;;0.60;;
842;SDS011;407;48.884;9.126;2022-10-22T05:12:05;5.28;;;0.65;;
842;SDS011;407;48.884;9.126;2022-10-22T05:14:31;3.90;;;0.60;;
842;SDS011;407;48.884;9.126;2022-10-22T05:16:57;5.40;;;0.70;;
842;SDS011;407;48.884;9.126;2022-10-22T05:19:23;4.10;;;0.77;;
842;SDS011;407;48.884;9.126;2022-10-22T05:21:51;5.70;;;0.70;;
842;SDS011;407;48.884;9.126;2022-10-22T05:24:18;4.10;;;0.80;;
842;SDS011;407;48.884;9.126;2022-10-22T05:26:44;4.63;;;0.60;;
842;SDS011;407;48.884;9.126;2022-10-22T05:29:12;4.57;;;0.47;;
842;SDS011;407;48.884;9.126;2022-10-22T05:31:38;4.00;;;0.70;;
842;SDS011;407;48.884;9.126;2022-10-22T05:34:05;3.90;;;0.60;;
842;SDS011;407;48.884;9.126;2022-10-22T05:36:30;5.47;;;0.90;;
842;SDS011;407;48.884;9.126;2022-10-22T05:38:56;6.07;;;0.80;;
842;SDS011;407;48.884;9.126;2022-10-22T05:41:22;5.30;;;0.73;;
842;SDS011;407;48.884;9.126;2022-10-22T05:43:50;4.13;;;0.60;;
842;SDS011;407;48.884;9.126;2022-10-22T05:46:20;3.70;;;0.60;;
842;SDS011;407;48.884;9.126;2022-10-22T05:48:50;3.80;;;0.60;;
842;SDS011;407;48.884;9.126;2022-10-22T05:51:15;4.80;;;0.80;;
842;SDS011;407;48.884;9.126;2022-10-22T05:53:41;4.37;;;0.90;;
842;SDS011;407;48.884;9.126;2022-10-22T05:56:11;4.30;;;0.82;;
842;SDS011;407;48.884;9.126;2022-10-22T05:58:38;3.78;;;0.55;;
842;SDS011;407;48.884;9.126;2022-10-22T06:01:11;4.00;;;0.70;;
842;SDS011;407;48.884;9.126;2022-10-22T06:03:39;4.20;;;0.80;;
842;SDS011;407;48.884;9.126;2022-10-22T06:09:10;4.80;;;0.70;;
842;SDS011;407;48.884;9.126;2022-10-22T06:11:44;5.70;;;1.00;;
842;SDS011;407;48.884;9.126;2022-10-22T06:14:11;4.00;;;0.80;;
842;SDS011;407;48.884;9.126;2022-10-22T06:16:37;6.18;;;0.90;;
842;SDS011;407;48.884;9.126;2022-10-22T06:19:03;7.60;;;1.58;;
842;SDS011;407;48.884;9.126;2022-10-22T06:21:29;4.77;;;0.97;;
842;SDS011;407;48.884;9.126;2022-10-22T06:23:56;4.40;;;0.68;;
842;SDS011;407;48.884;9.126;2022-10-22T06:26:22;5.60;;;1.30;;
842;SDS011;407;48.884;9.126;2022-10-22T06:28:48;3.90;;;0.65;;
842;SDS011;407;48.884;9.126;2022-10-22T06:31:14;3.88;;;0.70;;
842;SDS011;407;48.884;9.126;2022-10-22T06:33:40;4.03;;;0.75;;
842;SDS011;407;48.884;9.126;2022-10-22T06:36:12;4.20;;;0.70;;
842;SDS011;407;48.884;9.126;2022-10-22T06:38:40;4.40;;;0.60;;
842;SDS011;407;48.884;9.126;2022-10-22T06:41:13;4.50;;;0.63;;
842;SDS011;407;48.884;9.126;2022-10-22T06:43:41;4.00;;;0.73;;
842;SDS011;407;48.884;9.126;2022-10-22T06:46:11;6.32;;;0.80;;
842;SDS011;407;48.884;9.126;2022-10-22T06:48:38;4.70;;;1.20;;
842;SDS011;407;48.884;9.126;2022-10-22T06:51:05;5.60;;;0.82;;
842;SDS011;407;48.884;9.126;2022-10-22T06:53:33;4.32;;;0.90;;
842;SDS011;407;48.884;9.126;2022-10-22T06:56:03;5.00;;;1.10;;
842;SDS011;407;48.884;9.126;2022-10-22T06:58:36;5.63;;;1.10;;
842;SDS011;407;48.884;9.126;2022-10-22T07:01:12;6.70;;;1.20;;
842;SDS011;407;48.884;9.126;2022-10-22T07:03:39;5.40;;;1.50;;
842;SDS011;407;48.884;9.126;2022-10-22T07:06:07;5.90;;;2.10;;
842;SDS011;407;48.884;9.126;2022-10-22T07:08:34;6.90;;;1.30;;
842;SDS011;407;48.884;9.126;2022-10-22T07:11:08;5.30;;;1.05;;
842;SDS011;407;48.884;9.126;2022-10-22T07:13:36;4.97;;;1.05;;
842;SDS011;407;48.884;9.126;2022-10-22T07:16:01;4.63;;;0.90;;
842;SDS011;407;48.884;9.126;2022-10-22T07:18:28;5.00;;;1.10;;
842;SDS011;407;48.884;9.126;2022-10-22T07:20:53;5.50;;;1.00;;
842;SDS011;407;48.884;9.126;2022-10-22T07:23:19;4.90;;;1.20;;
842;SDS011;407;48.884;9.126;2022-10-22T07:25:45;6.43;;;0.83;;
842;SDS011;407;48.884;9.126;2022-10-22T07:28:10;5.80;;;0.90;;
842;SDS011;407;48.884;9.126;2022-10-22T07:30:36;5.72;;;0.90;;
842;SDS011;407;48.884;9.126;2022-10-22T07:33:02;4.88;;;0.77;;
842;SDS011;407;48.884;9.126;2022-10-22T07:35:28;4.95;;;1.00;;
842;SDS011;407;48.884;9.126;2022-10-22T07:37:54;5.47;;;0.97;;
842;SDS011;407;48.884;9.126;2022-10-22T07:40:20;4.60;;;0.80;;
842;SDS011;407;48.884;9.126;2022-10-22T07:42:45;6.53;;;1.00;;
842;SDS011;407;48.884;9.126;2022-10-22T07:45:11;4.90;;;0.80;;
842;SDS011;407;48.884;9.126;2022-10-22T07:47:37;4.30;;;0.80;;
842;SDS011;407;48.884;9.126;2022-10-22T07:50:02;5.20;;;0.82;;
842;SDS011;407;48.884;9.126;2022-10-22T07:52:28;5.00;;;0.90;;
842;SDS011;407;48.884;9.126;2022-10-22T07:54:54;4.70;;;0.90;;
842;SDS011;407;48.884;9.126;2022-10-22T07:57:19;5.80;;;0.90;;
842;SDS011;407;48.884;9.126;2022-10-22T07:59:45;4.70;;;1.00;;
842;SDS011;407;48.884;9.126;2022-10-22T08:02:11;4.78;;;0.88;;
842;SDS011;407;48.884;9.126;2022-10-22T08:04:37;4.70;;;0.90;;
842;SDS011;407;48.884;9.126;2022-10-22T08:07:03;5.00;;;0.90;;
842;SDS011;407;48.884;9.126;2022-10-22T08:09:29;6.40;;;0.70;;
842;SDS011;407;48.884;9.126;2022-10-22T08:11:55;5.75;;;0.85;;
842;SDS011;407;48.884;9.126;2022-10-22T08:14:21;5.00;;;0.90;;
842;SDS011;407;48.884;9.126;2022-10-22T08:16:47;4.80;;;0.70;;
842;SDS011;407;48.884;9.126;2022-10-22T08:19:13;4.60;;;0.70;;
842;SDS011;407;48.884;9.126;2022-10-22T08:21:42;5.60;;;0.90;;
842;SDS011;407;48.884;9.126;2022-10-22T08:24:10;4.70;;;0.80;;
842;SDS011;407;48.884;9.126;2022-10-22T08:26:35;6.80;;;0.93;;
842;SDS011;407;48.884;9.126;2022-10-22T08:29:01;6.90;;;0.90;;
842;SDS011;407;48.884;9.126;2022-10-22T08:31:27;5.57;;;1.00;;
842;SDS011;407;48.884;9.126;2022-10-22T08:33:52;5.00;;;1.50;;
842;SDS011;407;48.884;9.126;2022-10-22T08:36:18;7.47;;;4.13;;
842;SDS011;407;48.884;9.126;2022-10-22T08:38:44;5.80;;;4.15;;
842;SDS011;407;48.884;9.126;2022-10-22T08:41:13;6.00;;;5.40;;
842;SDS011;407;48.884;9.126;2022-10-22T08:49:00;7.90;;;4.70;;
842;SDS011;407;48.884;9.126;2022-10-22T08:51:35;5.90;;;4.30;;
842;SDS011;407;48.884;9.126;2022-10-22T08:56:34;8.05;;;6.20;;
842;SDS011;407;48.884;9.126;2022-10-22T08:59:03;8.70;;;7.80;;
842;SDS011;407;48.884;9.126;2022-10-22T09:01:40;8.13;;;7.32;;
842;SDS011;407;48.884;9.126;2022-10-22T09:06:49;6.60;;;5.90;;
842;SDS011;407;48.884;9.126;2022-10-22T09:09:16;6.13;;;3.70;;
842;SDS011;407;48.884;9.126;2022-10-22T09:11:45;14.70;;;8.53;;
842;SDS011;407;48.884;9.126;2022-10-22T09:14:14;5.87;;;3.77;;
842;SDS011;407;48.884;9.126;2022-10-22T09:25:22;7.60;;;3.30;;
842;SDS011;407;48.884;9.126;2022-10-22T09:27:53;6.30;;;3.15;;
842;SDS011;407;48.884;9.126;2022-10-22T09:30:23;6.10;;;2.80;;
842;SDS011;407;48.884;9.126;2022-10-22T09:33:33;5.10;;;2.80;;
842;SDS011;407;48.884;9.126;2022-10-22T09:35:50;6.78;;;2.38;;
842;SDS011;407;48.884;9.126;2022-10-22T09:38:28;5.60;;;3.30;;
842;SDS011;407;48.884;9.126;2022-10-22T09:40:56;6.43;;;3.03;;
842;SDS011;407;48.884;9.126;2022-10-22T09:43:24;5.35;;;2.70;;
842;SDS011;407;48.884;9.126;2022-10-22T09:45:57;5.20;;;2.20;;
842;SDS011;407;48.884;9.126;2022-10-22T09:48:34;8.90;;;1.70;;
842;SDS011;407;48.884;9.126;2022-10-22T09:51:13;4.90;;;1.80;;
842;SDS011;407;48.884;9.126;2022-10-22T09:53:41;4.70;;;1.20;;
842;SDS011;407;48.884;9.126;2022-10-22T09:56:14;5.80;;;1.42;;
842;SDS011;407;48.884;9.126;2022-10-22T09:59:01;5.70;;;1.30;;
842;SDS011;407;48.884;9.126;2022-10-22T10:01:32;5.30;;;1.35;;
842;SDS011;407;48.884;9.126;2022-10-22T10:04:17;4.93;;;1.40;;
842;SDS011;407;48.884;9.126;2022-10-22T10:06:43;5.18;;;1.60;;
842;SDS011;407;48.884;9.126;2022-10-22T10:11:45;5.10;;;1.35;;
842;SDS011;407;48.884;9.126;2022-10-22T10:22:56;4.60;;;1.20;;
842;SDS011;407;48.884;9.126;2022-10-22T10:30:53;7.40;;;1.20;;
842;SDS011;407;48.884;9.126;2022-10-22T10:39:14;5.03;;;1.50;;
842;SDS011;407;48.884;9.126;2022-10-22T10:41:55;5.10;;;1.13;;
842;SDS011;407;48.884;9.126;2022-10-22T10:44:53;5.60;;;1.30;;
842;SDS011;407;48.884;9.126;2022-10-22T10:50:39;5.15;;;1.63;;
842;SDS011;407;48.884;9.126;2022-10-22T10:53:25;6.90;;;3.30;;
842;SDS011;407;48.884;9.126;2022-10-22T11:01:28;6.97;;;1.50;;
842;SDS011;407;48.884;9.126;2022-10-22T11:04:19;6.55;;;1.50;;
842;SDS011;407;48.884;9.126;2022-10-22T11:06:49;4.90;;;1.25;;
842;SDS011;407;48.884;9.126;2022-10-22T11:09:25;6.03;;;1.30;;
842;SDS011;407;48.884;9.126;2022-10-22T11:12:00;5.80;;;1.40;;
842;SDS011;407;48.884;9.126;2022-10-22T11:14:31;5.65;;;1.70;;
842;SDS011;407;48.884;9.126;2022-10-22T11:17:05;5.15;;;1.30;;
842;SDS011;407;48.884;9.126;2022-10-22T11:19:40;5.20;;;1.30;;
842;SDS011;407;48.884;9.126;2022-10-22T11:22:37;6.43;;;1.50;;
842;SDS011;407;48.884;9.126;2022-10-22T11:27:41;4.80;;;1.40;;
842;SDS011;407;48.884;9.126;2022-10-22T11:30:21;4.60;;;0.98;;
842;SDS011;407;48.884;9.126;2022-10-22T11:32:50;6.65;;;1.30;;
842;SDS011;407;48.884;9.126;2022-10-22T11:35:23;6.10;;;1.25;;
842;SDS011;407;48.884;9.126;2022-10-22T11:37:54;5.10;;;1.10;;
842;SDS011;407;48.884;9.126;2022-10-22T11:40:30;5.50;;;1.10;;
842;SDS011;407;48.884;9.126;2022-10-22T11:43:09;5.40;;;0.80;;
842;SDS011;407;48.884;9.126;2022-10-22T11:45:49;5.50;;;1.10;;
842;SDS011;407;48.884;9.126;2022-10-22T11:48:36;6.38;;;0.90;;
842;SDS011;407;48.884;9.126;2022-10-22T11:51:02;5.07;;;1.00;;
842;SDS011;407;48.884;9.126;2022-10-22T11:53:48;5.20;;;0.90;;
842;SDS011;407;48.884;9.126;2022-10-22T11:56:25;5.35;;;1.10;;
842;SDS011;407;48.884;9.126;2022-10-22T11:59:01;5.65;;;0.98;;
842;SDS011;407;48.884;9.126;2022-10-22T12:01:28;5.88;;;1.10;;
842;SDS011;407;48.884;9.126;2022-10-22T12:04:19;5.35;;;0.95;;
842;SDS011;407;48.884;9.126;2022-10-22T12:06:56;4.97;;;1.00;;
842;SDS011;407;48.884;9.126;2022-10-22T12:09:25;5.40;;;1.00;;
842;SDS011;407;48.884;9.126;2022-10-22T12:11:54;5.20;;;1.00;;
842;SDS011;407;48.884;9.126;2022-10-22T12:14:31;5.50;;;1.00;;
842;SDS011;407;48.884;9.126;2022-10-22T12:17:12;5.82;;;1.10;;
842;SDS011;407;48.884;9.126;2022-10-22T12:24:50;7.90;;;0.90;;
842;SDS011;407;48.884;9.126;2022-10-22T12:29:47;4.90;;;0.90;;
842;SDS011;407;48.884;9.126;2022-10-22T12:32:14;5.80;;;0.87;;
842;SDS011;407;48.884;9.126;2022-10-22T12:34:50;5.90;;;1.10;;
842;SDS011;407;48.884;9.126;2022-10-22T12:37:17;4.80;;;0.80;;
842;SDS011;407;48.884;9.126;2022-10-22T12:39:43;5.90;;;1.20;;
842;SDS011;407;48.884;9.126;2022-10-22T12:42:14;5.43;;;1.00;;
842;SDS011;407;48.884;9.126;2022-10-22T12:44:42;6.70;;;1.55;;
842;SDS011;407;48.884;9.126;2022-10-22T12:47:15;4.90;;;1.10;;
842;SDS011;407;48.884;9.126;2022-10-22T12:49:44;4.70;;;0.90;;
842;SDS011;407;48.884;9.126;2022-10-22T12:52:15;5.22;;;1.10;;
842;SDS011;407;48.884;9.126;2022-10-22T12:54:44;6.10;;;1.00;;
842;SDS011;407;48.884;9.126;2022-10-22T12:57:12;4.95;;;1.10;;
842;SDS011;407;48.884;9.126;2022-10-22T12:59:41;6.20;;;1.10;;
842;SDS011;407;48.884;9.126;2022-10-22T13:02:18;5.88;;;1.10;;
842;SDS011;407;48.884;9.126;2022-10-22T13:07:40;5.20;;;1.10;;
842;SDS011;407;48.884;9.126;2022-10-22T13:10:24;4.80;;;1.20;;
842;SDS011;407;48.884;9.126;2022-10-22T13:12:55;5.55;;;1.27;;
842;SDS011;407;48.884;9.126;2022-10-22T13:18:17;6.00;;;1.20;;
842;SDS011;407;48.884;9.126;2022-10-22T13:23:23;4.63;;;0.93;;
842;SDS011;407;48.884;9.126;2022-10-22T13:26:03;5.60;;;0.90;;
842;SDS011;407;48.884;9.126;2022-10-22T13:28:40;6.10;;;1.00;;
842;SDS011;407;48.884;9.126;2022-10-22T13:31:08;5.70;;;1.00;;
842;SDS011;407;48.884;9.126;2022-10-22T13:33:43;4.90;;;1.00;;
842;SDS011;407;48.884;9.126;2022-10-22T13:36:14;6.65;;;1.10;;
842;SDS011;407;48.884;9.126;2022-10-22T13:38:40;6.20;;;1.10;;
842;SDS011;407;48.884;9.126;2022-10-22T13:41:26;6.20;;;1.00;;
842;SDS011;407;48.884;9.126;2022-10-22T13:43:55;6.75;;;1.42;;
842;SDS011;407;48.884;9.126;2022-10-22T13:46:21;5.77;;;1.10;;
842;SDS011;407;48.884;9.126;2022-10-22T13:48:49;4.80;;;0.70;;
842;SDS011;407;48.884;9.126;2022-10-22T13:51:21;4.70;;;1.00;;
842;SDS011;407;48.884;9.126;2022-10-22T13:53:49;5.10;;;1.10;;
842;SDS011;407;48.884;9.126;2022-10-22T13:56:17;5.47;;;1.30;;
842;SDS011;407;48.884;9.126;2022-10-22T13:58:45;7.00;;;1.10;;
842;SDS011;407;48.884;9.126;2022-10-22T14:01:21;6.53;;;1.20;;
842;SDS011;407;48.884;9.126;2022-10-22T14:03:51;5.00;;;1.10;;
842;SDS011;407;48.884;9.126;2022-10-22T14:06:22;5.40;;;0.90;;
842;SDS011;407;48.884;9.126;2022-10-22T14:08:52;5.53;;;1.20;;
842;SDS011;407;48.884;9.126;2022-10-22T14:11:22;6.25;;;1.30;;
842;SDS011;407;48.884;9.126;2022-10-22T14:13:48;7.60;;;2.00;;
842;SDS011;407;48.884;9.126;2022-10-22T14:16:18;5.47;;;1.00;;
842;SDS011;407;48.884;9.126;2022-10-22T14:18:45;5.65;;;1.15;;
842;SDS011;407;48.884;9.126;2022-10-22T14:21:12;7.28;;;1.10;;
842;SDS011;407;48.884;9.126;2022-10-22T14:23:39;5.07;;;1.10;;
842;SDS011;407;48.884;9.126;2022-10-22T14:26:06;4.90;;;0.90;;
842;SDS011;407;48.884;9.126;2022-10-22T14:28:34;5.03;;;1.00;;
842;SDS011;407;48.884;9.126;2022-10-22T14:30:59;4.65;;;0.82;;
842;SDS011;407;48.884;9.126;2022-10-22T14:35:53;6.20;;;1.10;;
842;SDS011;407;48.884;9.126;2022-10-22T14:38:19;5.65;;;1.00;;
842;SDS011;407;48.884;9.126;2022-10-22T14:40:45;5.60;;;1.13;;
842;SDS011;407;48.884;9.126;2022-10-22T14:43:12;5.10;;;1.00;;
842;SDS011;407;48.884;9.126;2022-10-22T14:45:50;5.70;;;1.15;;
842;SDS011;407;48.884;9.126;2022-10-22T14:48:16;5.37;;;1.20;;
842;SDS011;407;48.884;9.126;2022-10-22T14:50:42;5.55;;;1.00;;
842;SDS011;407;48.884;9.126;2022-10-22T14:53:09;5.68;;;1.00;;
842;SDS011;407;48.884;9.126;2022-10-22T14:55:35;6.03;;;1.20;;
842;SDS011;407;48.884;9.126;2022-10-22T14:58:00;5.90;;;1.27;;
842;SDS011;407;48.884;9.126;2022-10-22T15:00:26;6.00;;;1.00;;
842;SDS011;407;48.884;9.126;2022-10-22T15:02:52;5.03;;;1.10;;
842;SDS011;407;48.884;9.126;2022-10-22T15:05:19;5.43;;;1.10;;
842;SDS011;407;48.884;9.126;2022-10-22T15:07:46;5.40;;;1.10;;
842;SDS011;407;48.884;9.126;2022-10-22T15:10:11;5.80;;;1.20;;
842;SDS011;407;48.884;9.126;2022-10-22T15:12:37;6.50;;;1.20;;
842;SDS011;407;48.884;9.126;2022-10-22T15:15:03;7.10;;;1.10;;
842;SDS011;407;48.884;9.126;2022-10-22T15:17:29;7.28;;;1.40;;
842;SDS011;407;48.884;9.126;2022-10-22T15:19:55;5.82;;;1.27;;
842;SDS011;407;48.884;9.126;2022-10-22T15:22:23;7.10;;;1.15;;
842;SDS011;407;48.884;9.126;2022-10-22T15:24:49;6.10;;;1.10;;
842;SDS011;407;48.884;9.126;2022-10-22T15:27:16;6.13;;;1.10;;
842;SDS011;407;48.884;9.126;2022-10-22T15:29:42;5.57;;;1.20;;
842;SDS011;407;48.884;9.126;2022-10-22T15:32:08;6.40;;;1.10;;
842;SDS011;407;48.884;9.126;2022-10-22T15:34:37;5.60;;;1.10;;
842;SDS011;407;48.884;9.126;2022-10-22T15:37:04;5.80;;;1.10;;
842;SDS011;407;48.884;9.126;2022-10-22T15:39:31;6.53;;;1.20;;
842;SDS011;407;48.884;9.126;2022-10-22T15:41:57;7.22;;;1.10;;
842;SDS011;407;48.884;9.126;2022-10-22T15:44:27;8.70;;;1.50;;
842;SDS011;407;48.884;9.126;2022-10-22T15:46:55;6.88;;;1.50;;
842;SDS011;407;48.884;9.126;2022-10-22T15:49:21;5.40;;;1.33;;
842;SDS011;407;48.884;9.126;2022-10-22T15:51:48;8.43;;;1.52;;
842;SDS011;407;48.884;9.126;2022-10-22T15:54:15;6.60;;;1.30;;
842;SDS011;407;48.884;9.126;2022-10-22T15:56:45;6.38;;;1.30;;
842;SDS011;407;48.884;9.126;2022-10-22T15:59:11;7.13;;;1.80;;
842;SDS011;407;48.884;9.126;2022-10-22T16:01:38;6.50;;;1.40;;
842;SDS011;407;48.884;9.126;2022-10-22T16:04:04;7.97;;;1.55;;
842;SDS011;407;48.884;9.126;2022-10-22T16:06:32;5.90;;;1.88;;
842;SDS011;407;48.884;9.126;2022-10-22T16:09:04;7.90;;;1.90;;
842;SDS011;407;48.884;9.126;2022-10-22T16:11:32;12.50;;;1.50;;
842;SDS011;407;48.884;9.126;2022-10-22T16:13:58;8.57;;;1.70;;
842;SDS011;407;48.884;9.126;2022-10-22T16:16:25;8.20;;;1.60;;
842;SDS011;407;48.884;9.126;2022-10-22T16:18:53;6.10;;;1.30;;
842;SDS011;407;48.884;9.126;2022-10-22T16:21:19;9.23;;;1.80;;
842;SDS011;407;48.884;9.126;2022-10-22T16:23:46;7.10;;;1.60;;
842;SDS011;407;48.884;9.126;2022-10-22T16:26:12;10.75;;;2.30;;
842;SDS011;407;48.884;9.126;2022-10-22T16:28:39;6.53;;;1.40;;
842;SDS011;407;48.884;9.126;2022-10-22T16:31:07;14.40;;;2.03;;
842;SDS011;407;48.884;9.126;2022-10-22T16:33:34;6.72;;;1.90;;
842;SDS011;407;48.884;9.126;2022-10-22T16:36:02;8.88;;;2.00;;
842;SDS011;407;48.884;9.126;2022-10-22T16:38:28;7.53;;;1.85;;
842;SDS011;407;48.884;9.126;2022-10-22T16:40:53;5.38;;;1.60;;
842;SDS011;407;48.884;9.126;2022-10-22T16:43:34;10.30;;;1.70;;
842;SDS011;407;48.884;9.126;2022-10-22T16:45:59;9.32;;;1.90;;
842;SDS011;407;48.884;9.126;2022-10-22T16:48:26;8.18;;;2.10;;
842;SDS011;407;48.884;9.126;2022-10-22T16:50:51;8.47;;;2.23;;
842;SDS011;407;48.884;9.126;2022-10-22T16:53:17;9.90;;;2.58;;
842;SDS011;407;48.884;9.126;2022-10-22T16:55:43;7.80;;;2.20;;
842;SDS011;407;48.884;9.126;2022-10-22T16:58:08;9.02;;;2.55;;
842;SDS011;407;48.884;9.126;2022-10-22T17:00:34;18.60;;;5.17;;
842;SDS011;407;48.884;9.126;2022-10-22T17:03:00;8.18;;;2.72;;
842;SDS011;407;48.884;9.126;2022-10-22T17:05:26;6.23;;;2.10;;
842;SDS011;407;48.884;9.126;2022-10-22T17:07:51;8.55;;;2.45;;
842;SDS011;407;48.884;9.126;2022-10-22T17:10:17;7.15;;;2.10;;
842;SDS011;407;48.884;9.126;2022-10-22T17:12:44;7.35;;;2.10;;
842;SDS011;407;48.884;9.126;2022-10-22T17:15:10;7.43;;;2.20;;
842;SDS011;407;48.884;9.126;2022-10-22T17:17:36;6.30;;;1.90;;
842;SDS011;407;48.884;9.126;2022-10-22T17:20:02;5.95;;;2.10;;
842;SDS011;407;48.884;9.126;2022-10-22T17:22:28;6.78;;;1.60;;
842;SDS011;407;48.884;9.126;2022-10-22T17:27:39;9.77;;;2.08;;
842;SDS011;407;48.884;9.126;2022-10-22T17:30:07;8.30;;;2.00;;
842;SDS011;407;48.884;9.126;2022-10-22T17:32:38;9.00;;;2.63;;
842;SDS011;407;48.884;9.126;2022-10-22T17:35:04;6.72;;;1.95;;
842;SDS011;407;48.884;9.126;2022-10-22T17:37:31;8.45;;;2.17;;
842;SDS011;407;48.884;9.126;2022-10-22T17:39:57;6.75;;;1.95;;
842;SDS011;407;48.884;9.126;2022-10-22T17:42:22;8.68;;;1.92;;
842;SDS011;407;48.884;9.126;2022-10-22T17:44:48;8.10;;;2.45;;
842;SDS011;407;48.884;9.126;2022-10-22T17:47:14;6.53;;;2.10;;